sensor_id;sensor_type;location;lat;lon;timestamp;temperature;humidity
66119;DHT22;52912;48.564;9.302;2023-03-05T00:00:15;2.09;81.85
66119;DHT22;52912;48.564;9.302;2023-03-05T00:02:41;2.09;82.00
66119;DHT22;52912;48.564;9.302;2023-03-05T00:05:08;2.05;82.16
66119;DHT22;52912;48.564;9.302;2023-03-05T00:07:34;2.03;82.16
66119;DHT22;52912;48.564;9.302;2023-03-05T00:09:59;2.02;82.17
66119;DHT22;52912;48.564;9.302;2023-03-05T00:12:25;2.09;81.76
66119;DHT22;52912;48.564;9.302;2023-03-05T00:14:52;2.07;81.85
66119;DHT22;52912;48.564;9.302;2023-03-05T00:17:17;2.05;82.12
66119;DHT22;52912;48.564;9.302;2023-03-05T00:19:43;2.07;82.07
66119;DHT22;52912;48.564;9.302;2023-03-05T00:22:08;2.07;81.97
66119;DHT22;52912;48.564;9.302;2023-03-05T00:24:34;2.02;82.03
66119;DHT22;52912;48.564;9.302;2023-03-05T00:26:59;2.06;81.93
66119;DHT22;52912;48.564;9.302;2023-03-05T00:29:25;2.06;81.98
66119;DHT22;52912;48.564;9.302;2023-03-05T00:31:51;2.11;82.11
66119;DHT22;52912;48.564;9.302;2023-03-05T00:34:17;2.13;82.02
66119;DHT22;52912;48.564;9.302;2023-03-05T00:36:44;2.16;81.99
66119;DHT22;52912;48.564;9.302;2023-03-05T00:39:11;2.06;82.34
66119;DHT22;52912;48.564;9.302;2023-03-05T00:41:37;2.06;82.51
66119;DHT22;52912;48.564;9.302;2023-03-05T00:44:02;2.03;82.45
66119;DHT22;52912;48.564;9.302;2023-03-05T00:46:28;2.05;82.48
66119;DHT22;52912;48.564;9.302;2023-03-05T00:48:55;2.07;82.43
66119;DHT22;52912;48.564;9.302;2023-03-05T00:51:21;2.07;82.36
66119;DHT22;52912;48.564;9.302;2023-03-05T00:53:47;2.10;82.36
66119;DHT22;52912;48.564;9.302;2023-03-05T00:56:12;2.13;82.29
66119;DHT22;52912;48.564;9.302;2023-03-05T00:58:38;2.13;82.31
66119;DHT22;52912;48.564;9.302;2023-03-05T01:01:04;2.20;82.25
66119;DHT22;52912;48.564;9.302;2023-03-05T01:03:31;2.13;82.41
66119;DHT22;52912;48.564;9.302;2023-03-05T01:05:58;2.11;82.68
66119;DHT22;52912;48.564;9.302;2023-03-05T01:08:25;2.11;82.69
66119;DHT22;52912;48.564;9.302;2023-03-05T01:10:51;2.02;82.89
66119;DHT22;52912;48.564;9.302;2023-03-05T01:13:17;2.06;82.91
66119;DHT22;52912;48.564;9.302;2023-03-05T01:15:42;2.07;82.90
66119;DHT22;52912;48.564;9.302;2023-03-05T01:18:08;1.99;83.25
66119;DHT22;52912;48.564;9.302;2023-03-05T01:20:34;2.06;83.03
66119;DHT22;52912;48.564;9.302;2023-03-05T01:23:01;2.00;83.04
66119;DHT22;52912;48.564;9.302;2023-03-05T01:25:27;2.09;82.76
66119;DHT22;52912;48.564;9.302;2023-03-05T01:27:52;2.09;82.76
66119;DHT22;52912;48.564;9.302;2023-03-05T01:30:18;2.02;82.83
66119;DHT22;52912;48.564;9.302;2023-03-05T01:32:43;2.00;82.99
66119;DHT22;52912;48.564;9.302;2023-03-05T01:35:14;2.05;83.03
66119;DHT22;52912;48.564;9.302;2023-03-05T01:37:40;2.09;82.85
66119;DHT22;52912;48.564;9.302;2023-03-05T01:40:09;2.11;82.82
66119;DHT22;52912;48.564;9.302;2023-03-05T01:42:35;2.07;82.45
66119;DHT22;52912;48.564;9.302;2023-03-05T01:45:03;2.13;82.91
66119;DHT22;52912;48.564;9.302;2023-03-05T01:47:29;2.10;83.51
66119;DHT22;52912;48.564;9.302;2023-03-05T01:49:55;2.10;83.57
66119;DHT22;52912;48.564;9.302;2023-03-05T01:52:22;2.02;83.55
66119;DHT22;52912;48.564;9.302;2023-03-05T01:54:51;2.00;84.13
66119;DHT22;52912;48.564;9.302;2023-03-05T01:57:22;1.95;84.24
66119;DHT22;52912;48.564;9.302;2023-03-05T01:59:51;1.92;84.19
66119;DHT22;52912;48.564;9.302;2023-03-05T02:02:18;1.90;84.30
66119;DHT22;52912;48.564;9.302;2023-03-05T02:04:47;1.87;84.76
66119;DHT22;52912;48.564;9.302;2023-03-05T02:07:14;1.93;84.47
66119;DHT22;52912;48.564;9.302;2023-03-05T02:09:40;1.95;84.52
66119;DHT22;52912;48.564;9.302;2023-03-05T02:12:07;1.99;84.65
66119;DHT22;52912;48.564;9.302;2023-03-05T02:14:35;2.00;84.42
66119;DHT22;52912;48.564;9.302;2023-03-05T02:17:00;2.06;84.13
66119;DHT22;52912;48.564;9.302;2023-03-05T02:19:26;2.06;84.31
66119;DHT22;52912;48.564;9.302;2023-03-05T02:21:53;2.02;84.17
66119;DHT22;52912;48.564;9.302;2023-03-05T02:24:33;1.99;83.77
66119;DHT22;52912;48.564;9.302;2023-03-05T02:26:59;1.96;83.96
66119;DHT22;52912;48.564;9.302;2023-03-05T02:29:25;2.07;83.85
66119;DHT22;52912;48.564;9.302;2023-03-05T02:31:53;2.06;83.61
66119;DHT22;52912;48.564;9.302;2023-03-05T02:34:19;2.03;83.80
66119;DHT22;52912;48.564;9.302;2023-03-05T02:36:44;2.02;83.65
66119;DHT22;52912;48.564;9.302;2023-03-05T02:39:11;1.96;83.61
66119;DHT22;52912;48.564;9.302;2023-03-05T02:41:36;2.06;83.65
66119;DHT22;52912;48.564;9.302;2023-03-05T02:44:02;2.06;83.73
66119;DHT22;52912;48.564;9.302;2023-03-05T02:46:27;2.00;83.49
66119;DHT22;52912;48.564;9.302;2023-03-05T02:48:53;2.02;83.52
66119;DHT22;52912;48.564;9.302;2023-03-05T02:51:18;2.02;83.74
66119;DHT22;52912;48.564;9.302;2023-03-05T02:53:44;1.97;83.60
66119;DHT22;52912;48.564;9.302;2023-03-05T02:56:11;1.87;83.73
66119;DHT22;52912;48.564;9.302;2023-03-05T02:58:36;1.90;83.94
66119;DHT22;52912;48.564;9.302;2023-03-05T03:01:02;1.99;83.85
66119;DHT22;52912;48.564;9.302;2023-03-05T03:03:27;1.95;83.89
66119;DHT22;52912;48.564;9.302;2023-03-05T03:05:53;1.93;84.05
66119;DHT22;52912;48.564;9.302;2023-03-05T03:08:21;1.99;83.91
66119;DHT22;52912;48.564;9.302;2023-03-05T03:10:47;1.96;83.45
66119;DHT22;52912;48.564;9.302;2023-03-05T03:13:13;1.92;83.26
66119;DHT22;52912;48.564;9.302;2023-03-05T03:15:39;2.05;83.30
66119;DHT22;52912;48.564;9.302;2023-03-05T03:18:05;2.07;83.13
66119;DHT22;52912;48.564;9.302;2023-03-05T03:20:30;2.02;83.09
66119;DHT22;52912;48.564;9.302;2023-03-05T03:22:55;2.02;83.20
66119;DHT22;52912;48.564;9.302;2023-03-05T03:25:22;2.00;83.23
66119;DHT22;52912;48.564;9.302;2023-03-05T03:27:47;1.95;83.19
66119;DHT22;52912;48.564;9.302;2023-03-05T03:30:14;1.96;83.23
66119;DHT22;52912;48.564;9.302;2023-03-05T03:32:40;1.99;83.11
66119;DHT22;52912;48.564;9.302;2023-03-05T03:35:07;1.97;83.12
66119;DHT22;52912;48.564;9.302;2023-03-05T03:37:32;2.06;83.23
66119;DHT22;52912;48.564;9.302;2023-03-05T03:39:58;2.05;83.16
66119;DHT22;52912;48.564;9.302;2023-03-05T03:42:24;1.99;83.27
66119;DHT22;52912;48.564;9.302;2023-03-05T03:44:50;2.03;83.49
66119;DHT22;52912;48.564;9.302;2023-03-05T03:47:17;2.00;83.82
66119;DHT22;52912;48.564;9.302;2023-03-05T03:49:43;2.03;84.09
66119;DHT22;52912;48.564;9.302;2023-03-05T03:52:08;1.96;84.25
66119;DHT22;52912;48.564;9.302;2023-03-05T03:54:34;2.00;84.37
66119;DHT22;52912;48.564;9.302;2023-03-05T03:56:59;2.00;84.92
66119;DHT22;52912;48.564;9.302;2023-03-05T03:59:25;2.00;85.02
66119;DHT22;52912;48.564;9.302;2023-03-05T04:01:50;1.99;84.98
66119;DHT22;52912;48.564;9.302;2023-03-05T04:04:17;2.02;84.70
66119;DHT22;52912;48.564;9.302;2023-03-05T04:06:42;2.03;84.75
66119;DHT22;52912;48.564;9.302;2023-03-05T04:09:08;1.99;84.90
66119;DHT22;52912;48.564;9.302;2023-03-05T04:11:34;1.90;84.78
66119;DHT22;52912;48.564;9.302;2023-03-05T04:13:59;1.97;84.73
66119;DHT22;52912;48.564;9.302;2023-03-05T04:16:25;2.00;85.04
66119;DHT22;52912;48.564;9.302;2023-03-05T04:18:51;1.93;84.92
66119;DHT22;52912;48.564;9.302;2023-03-05T04:21:17;1.93;84.85
66119;DHT22;52912;48.564;9.302;2023-03-05T04:23:44;1.86;85.39
66119;DHT22;52912;48.564;9.302;2023-03-05T04:26:09;1.87;85.58
66119;DHT22;52912;48.564;9.302;2023-03-05T04:28:35;1.96;85.62
66119;DHT22;52912;48.564;9.302;2023-03-05T04:31:00;1.97;85.32
66119;DHT22;52912;48.564;9.302;2023-03-05T04:33:26;1.95;85.31
66119;DHT22;52912;48.564;9.302;2023-03-05T04:35:51;1.90;85.07
66119;DHT22;52912;48.564;9.302;2023-03-05T04:38:18;1.90;85.05
66119;DHT22;52912;48.564;9.302;2023-03-05T04:40:43;1.93;85.57
66119;DHT22;52912;48.564;9.302;2023-03-05T04:43:09;1.97;86.10
66119;DHT22;52912;48.564;9.302;2023-03-05T04:45:35;2.02;86.11
66119;DHT22;52912;48.564;9.302;2023-03-05T04:48:03;1.99;86.01
66119;DHT22;52912;48.564;9.302;2023-03-05T04:50:28;1.93;86.07
66119;DHT22;52912;48.564;9.302;2023-03-05T04:52:55;2.00;86.01
66119;DHT22;52912;48.564;9.302;2023-03-05T04:55:22;2.02;85.85
66119;DHT22;52912;48.564;9.302;2023-03-05T04:57:48;2.07;86.03
66119;DHT22;52912;48.564;9.302;2023-03-05T05:00:15;2.05;85.89
66119;DHT22;52912;48.564;9.302;2023-03-05T05:02:41;2.00;86.02
66119;DHT22;52912;48.564;9.302;2023-03-05T05:05:08;1.99;86.78
66119;DHT22;52912;48.564;9.302;2023-03-05T05:07:33;1.86;86.66
66119;DHT22;52912;48.564;9.302;2023-03-05T05:09:59;1.96;86.66
66119;DHT22;52912;48.564;9.302;2023-03-05T05:12:29;1.92;86.67
66119;DHT22;52912;48.564;9.302;2023-03-05T05:14:54;1.86;87.10
66119;DHT22;52912;48.564;9.302;2023-03-05T05:17:20;1.95;87.28
66119;DHT22;52912;48.564;9.302;2023-03-05T05:19:45;1.83;87.35
66119;DHT22;52912;48.564;9.302;2023-03-05T05:22:11;1.85;87.54
66119;DHT22;52912;48.564;9.302;2023-03-05T05:24:36;1.85;87.87
66119;DHT22;52912;48.564;9.302;2023-03-05T05:27:01;1.80;88.34
66119;DHT22;52912;48.564;9.302;2023-03-05T05:29:28;1.79;88.49
66119;DHT22;52912;48.564;9.302;2023-03-05T05:31:54;1.73;88.44
66119;DHT22;52912;48.564;9.302;2023-03-05T05:34:19;1.65;89.38
66119;DHT22;52912;48.564;9.302;2023-03-05T05:36:45;1.71;89.31
66119;DHT22;52912;48.564;9.302;2023-03-05T05:39:10;1.69;89.44
66119;DHT22;52912;48.564;9.302;2023-03-05T05:41:35;1.66;89.47
66119;DHT22;52912;48.564;9.302;2023-03-05T05:44:01;1.72;89.45
66119;DHT22;52912;48.564;9.302;2023-03-05T05:46:28;1.63;89.66
66119;DHT22;52912;48.564;9.302;2023-03-05T05:48:53;1.61;89.52
66119;DHT22;52912;48.564;9.302;2023-03-05T05:51:21;1.56;89.95
66119;DHT22;52912;48.564;9.302;2023-03-05T05:53:47;1.59;89.89
66119;DHT22;52912;48.564;9.302;2023-03-05T05:56:14;1.66;89.69
66119;DHT22;52912;48.564;9.302;2023-03-05T05:58:40;1.65;89.59
66119;DHT22;52912;48.564;9.302;2023-03-05T06:01:12;1.62;89.01
66119;DHT22;52912;48.564;9.302;2023-03-05T06:03:39;1.65;89.11
66119;DHT22;52912;48.564;9.302;2023-03-05T06:06:08;1.63;89.38
66119;DHT22;52912;48.564;9.302;2023-03-05T06:08:33;1.69;89.39
66119;DHT22;52912;48.564;9.302;2023-03-05T06:10:58;1.69;89.29
66119;DHT22;52912;48.564;9.302;2023-03-05T06:13:24;1.65;88.18
66119;DHT22;52912;48.564;9.302;2023-03-05T06:15:55;1.66;88.64
66119;DHT22;52912;48.564;9.302;2023-03-05T06:18:21;1.62;88.39
66119;DHT22;52912;48.564;9.302;2023-03-05T06:20:54;1.66;88.60
66119;DHT22;52912;48.564;9.302;2023-03-05T06:23:19;1.69;87.65
66119;DHT22;52912;48.564;9.302;2023-03-05T06:25:45;1.71;87.81
66119;DHT22;52912;48.564;9.302;2023-03-05T06:28:10;1.73;87.86
66119;DHT22;52912;48.564;9.302;2023-03-05T06:30:36;1.73;87.80
66119;DHT22;52912;48.564;9.302;2023-03-05T06:33:01;1.76;87.63
66119;DHT22;52912;48.564;9.302;2023-03-05T06:35:27;1.76;87.61
66119;DHT22;52912;48.564;9.302;2023-03-05T06:37:53;1.72;87.26
66119;DHT22;52912;48.564;9.302;2023-03-05T06:40:19;1.79;86.86
66119;DHT22;52912;48.564;9.302;2023-03-05T06:42:44;1.76;87.14
66119;DHT22;52912;48.564;9.302;2023-03-05T06:45:10;1.76;87.11
66119;DHT22;52912;48.564;9.302;2023-03-05T06:47:36;1.80;87.21
66119;DHT22;52912;48.564;9.302;2023-03-05T06:50:01;1.86;87.34
66119;DHT22;52912;48.564;9.302;2023-03-05T06:52:27;1.86;87.43
66119;DHT22;52912;48.564;9.302;2023-03-05T06:54:54;1.87;87.58
66119;DHT22;52912;48.564;9.302;2023-03-05T06:57:19;1.90;87.18
66119;DHT22;52912;48.564;9.302;2023-03-05T06:59:44;1.87;87.19
66119;DHT22;52912;48.564;9.302;2023-03-05T07:02:10;1.92;87.11
66119;DHT22;52912;48.564;9.302;2023-03-05T07:04:35;2.00;87.82
66119;DHT22;52912;48.564;9.302;2023-03-05T07:07:01;2.03;88.35
66119;DHT22;52912;48.564;9.302;2023-03-05T07:09:26;1.96;88.14
66119;DHT22;52912;48.564;9.302;2023-03-05T07:11:53;1.96;88.22
66119;DHT22;52912;48.564;9.302;2023-03-05T07:14:18;1.99;87.77
66119;DHT22;52912;48.564;9.302;2023-03-05T07:16:44;2.00;88.11
66119;DHT22;52912;48.564;9.302;2023-03-05T07:19:09;2.00;87.40
66119;DHT22;52912;48.564;9.302;2023-03-05T07:21:35;2.05;87.11
66119;DHT22;52912;48.564;9.302;2023-03-05T07:24:01;2.09;86.96
66119;DHT22;52912;48.564;9.302;2023-03-05T07:26:27;2.09;86.95
66119;DHT22;52912;48.564;9.302;2023-03-05T07:28:54;2.13;87.66
66119;DHT22;52912;48.564;9.302;2023-03-05T07:31:21;2.09;87.17
66119;DHT22;52912;48.564;9.302;2023-03-05T07:33:48;2.14;87.19
66119;DHT22;52912;48.564;9.302;2023-03-05T07:36:14;2.17;87.01
66119;DHT22;52912;48.564;9.302;2023-03-05T07:38:40;2.11;86.95
66119;DHT22;52912;48.564;9.302;2023-03-05T07:41:07;2.20;86.90
66119;DHT22;52912;48.564;9.302;2023-03-05T07:43:33;2.25;86.96
66119;DHT22;52912;48.564;9.302;2023-03-05T07:46:02;2.30;86.81
66119;DHT22;52912;48.564;9.302;2023-03-05T07:48:28;2.34;86.61
66119;DHT22;52912;48.564;9.302;2023-03-05T07:50:59;2.41;86.94
66119;DHT22;52912;48.564;9.302;2023-03-05T07:53:25;2.40;86.94
66119;DHT22;52912;48.564;9.302;2023-03-05T07:55:50;2.42;86.79
66119;DHT22;52912;48.564;9.302;2023-03-05T07:58:16;2.45;86.28
66119;DHT22;52912;48.564;9.302;2023-03-05T08:00:41;2.42;85.88
66119;DHT22;52912;48.564;9.302;2023-03-05T08:03:08;2.44;86.20
66119;DHT22;52912;48.564;9.302;2023-03-05T08:05:34;2.44;86.21
66119;DHT22;52912;48.564;9.302;2023-03-05T08:08:02;2.52;86.48
66119;DHT22;52912;48.564;9.302;2023-03-05T08:10:28;2.55;86.62
66119;DHT22;52912;48.564;9.302;2023-03-05T08:12:53;2.58;86.43
66119;DHT22;52912;48.564;9.302;2023-03-05T08:15:19;2.63;86.90
66119;DHT22;52912;48.564;9.302;2023-03-05T08:17:44;2.55;86.47
66119;DHT22;52912;48.564;9.302;2023-03-05T08:20:12;2.61;86.47
66119;DHT22;52912;48.564;9.302;2023-03-05T08:22:37;2.62;85.99
66119;DHT22;52912;48.564;9.302;2023-03-05T08:25:04;2.69;86.34
66119;DHT22;52912;48.564;9.302;2023-03-05T08:27:30;2.72;85.88
66119;DHT22;52912;48.564;9.302;2023-03-05T08:29:55;2.73;85.90
66119;DHT22;52912;48.564;9.302;2023-03-05T08:32:21;2.80;86.01
66119;DHT22;52912;48.564;9.302;2023-03-05T08:34:46;2.95;85.72
66119;DHT22;52912;48.564;9.302;2023-03-05T08:37:13;2.95;85.54
66119;DHT22;52912;48.564;9.302;2023-03-05T08:39:39;2.95;85.46
66119;DHT22;52912;48.564;9.302;2023-03-05T08:42:05;2.93;85.46
66119;DHT22;52912;48.564;9.302;2023-03-05T08:44:30;2.96;84.89
66119;DHT22;52912;48.564;9.302;2023-03-05T08:46:56;2.99;84.58
66119;DHT22;52912;48.564;9.302;2023-03-05T08:49:21;2.96;84.86
66119;DHT22;52912;48.564;9.302;2023-03-05T08:51:47;2.99;85.21
66119;DHT22;52912;48.564;9.302;2023-03-05T08:54:14;2.99;83.99
66119;DHT22;52912;48.564;9.302;2023-03-05T08:56:39;3.10;84.12
66119;DHT22;52912;48.564;9.302;2023-03-05T08:59:05;3.16;84.91
66119;DHT22;52912;48.564;9.302;2023-03-05T09:01:31;3.16;84.43
66119;DHT22;52912;48.564;9.302;2023-03-05T09:03:57;3.14;84.16
66119;DHT22;52912;48.564;9.302;2023-03-05T09:06:23;3.18;84.70
66119;DHT22;52912;48.564;9.302;2023-03-05T09:08:48;3.21;83.84
66119;DHT22;52912;48.564;9.302;2023-03-05T09:11:16;3.27;83.59
66119;DHT22;52912;48.564;9.302;2023-03-05T09:13:41;3.24;83.75
66119;DHT22;52912;48.564;9.302;2023-03-05T09:16:09;3.28;83.83
66119;DHT22;52912;48.564;9.302;2023-03-05T09:18:35;3.32;83.12
66119;DHT22;52912;48.564;9.302;2023-03-05T09:21:03;3.38;83.35
66119;DHT22;52912;48.564;9.302;2023-03-05T09:23:29;3.45;83.79
66119;DHT22;52912;48.564;9.302;2023-03-05T09:25:54;3.51;84.22
66119;DHT22;52912;48.564;9.302;2023-03-05T09:28:21;3.52;83.32
66119;DHT22;52912;48.564;9.302;2023-03-05T09:30:47;3.69;83.12
66119;DHT22;52912;48.564;9.302;2023-03-05T09:33:13;3.69;83.22
66119;DHT22;52912;48.564;9.302;2023-03-05T09:35:38;3.65;82.35
66119;DHT22;52912;48.564;9.302;2023-03-05T09:38:03;3.70;82.71
66119;DHT22;52912;48.564;9.302;2023-03-05T09:40:31;3.76;82.80
66119;DHT22;52912;48.564;9.302;2023-03-05T09:43:04;3.70;83.23
66119;DHT22;52912;48.564;9.302;2023-03-05T09:45:37;3.62;83.19
66119;DHT22;52912;48.564;9.302;2023-03-05T09:48:12;3.66;82.57
66119;DHT22;52912;48.564;9.302;2023-03-05T09:50:43;3.75;82.75
66119;DHT22;52912;48.564;9.302;2023-03-05T09:53:34;3.82;82.61
66119;DHT22;52912;48.564;9.302;2023-03-05T09:56:06;3.87;82.28
66119;DHT22;52912;48.564;9.302;2023-03-05T09:58:37;3.98;82.36
66119;DHT22;52912;48.564;9.302;2023-03-05T10:01:07;4.06;82.16
66119;DHT22;52912;48.564;9.302;2023-03-05T10:03:43;4.14;81.31
66119;DHT22;52912;48.564;9.302;2023-03-05T10:06:16;4.28;81.41
66119;DHT22;52912;48.564;9.302;2023-03-05T10:08:47;4.22;81.43
66119;DHT22;52912;48.564;9.302;2023-03-05T10:11:33;4.20;81.54
66119;DHT22;52912;48.564;9.302;2023-03-05T10:14:00;4.28;80.99
66119;DHT22;52912;48.564;9.302;2023-03-05T10:22:45;4.48;80.48
66119;DHT22;52912;48.564;9.302;2023-03-05T10:25:20;4.59;80.99
66119;DHT22;52912;48.564;9.302;2023-03-05T10:27:50;4.46;80.40
66119;DHT22;52912;48.564;9.302;2023-03-05T10:30:38;4.70;80.82
66119;DHT22;52912;48.564;9.302;2023-03-05T10:33:14;4.58;79.78
66119;DHT22;52912;48.564;9.302;2023-03-05T10:35:52;4.59;79.84
66119;DHT22;52912;48.564;9.302;2023-03-05T10:41:21;4.72;79.61
66119;DHT22;52912;48.564;9.302;2023-03-05T10:43:54;4.86;78.55
66119;DHT22;52912;48.564;9.302;2023-03-05T10:46:30;4.73;79.19
66119;DHT22;52912;48.564;9.302;2023-03-05T10:48:58;4.93;77.31
66119;DHT22;52912;48.564;9.302;2023-03-05T10:51:32;5.13;77.28
66119;DHT22;52912;48.564;9.302;2023-03-05T10:54:03;5.10;75.84
66119;DHT22;52912;48.564;9.302;2023-03-05T10:56:33;5.22;76.41
66119;DHT22;52912;48.564;9.302;2023-03-05T10:58:59;5.21;76.12
66119;DHT22;52912;48.564;9.302;2023-03-05T11:01:26;5.05;75.65
66119;DHT22;52912;48.564;9.302;2023-03-05T11:03:55;5.04;75.90
66119;DHT22;52912;48.564;9.302;2023-03-05T11:06:33;5.03;76.92
66119;DHT22;52912;48.564;9.302;2023-03-05T11:09:16;5.03;75.13
66119;DHT22;52912;48.564;9.302;2023-03-05T11:11:42;4.86;76.15
66119;DHT22;52912;48.564;9.302;2023-03-05T11:14:22;4.80;77.16
66119;DHT22;52912;48.564;9.302;2023-03-05T11:16:48;4.75;76.82
66119;DHT22;52912;48.564;9.302;2023-03-05T11:19:17;4.90;77.07
66119;DHT22;52912;48.564;9.302;2023-03-05T11:21:44;5.03;76.90
66119;DHT22;52912;48.564;9.302;2023-03-05T11:24:11;4.88;76.01
66119;DHT22;52912;48.564;9.302;2023-03-05T11:26:45;4.96;76.43
66119;DHT22;52912;48.564;9.302;2023-03-05T11:29:18;4.93;75.79
66119;DHT22;52912;48.564;9.302;2023-03-05T11:31:43;4.84;75.76
66119;DHT22;52912;48.564;9.302;2023-03-05T11:34:24;4.81;75.63
66119;DHT22;52912;48.564;9.302;2023-03-05T11:36:58;4.73;75.51
66119;DHT22;52912;48.564;9.302;2023-03-05T11:39:24;4.73;76.09
66119;DHT22;52912;48.564;9.302;2023-03-05T11:41:54;4.66;76.05
66119;DHT22;52912;48.564;9.302;2023-03-05T11:44:22;4.81;76.19
66119;DHT22;52912;48.564;9.302;2023-03-05T11:46:51;4.87;76.55
66119;DHT22;52912;48.564;9.302;2023-03-05T11:49:20;4.91;76.62
66119;DHT22;52912;48.564;9.302;2023-03-05T11:51:54;4.93;76.23
66119;DHT22;52912;48.564;9.302;2023-03-05T11:54:25;5.01;75.74
66119;DHT22;52912;48.564;9.302;2023-03-05T11:56:53;4.96;75.82
66119;DHT22;52912;48.564;9.302;2023-03-05T11:59:22;4.86;75.99
66119;DHT22;52912;48.564;9.302;2023-03-05T12:01:51;4.84;76.35
66119;DHT22;52912;48.564;9.302;2023-03-05T12:04:18;4.94;76.07
66119;DHT22;52912;48.564;9.302;2023-03-05T12:06:46;4.90;76.96
66119;DHT22;52912;48.564;9.302;2023-03-05T12:09:20;4.91;76.01
66119;DHT22;52912;48.564;9.302;2023-03-05T12:11:49;4.88;76.30
66119;DHT22;52912;48.564;9.302;2023-03-05T12:14:18;4.69;76.93
66119;DHT22;52912;48.564;9.302;2023-03-05T12:16:50;4.58;76.50
66119;DHT22;52912;48.564;9.302;2023-03-05T12:19:32;4.72;77.22
66119;DHT22;52912;48.564;9.302;2023-03-05T12:22:01;4.69;77.02
66119;DHT22;52912;48.564;9.302;2023-03-05T12:24:36;4.69;77.18
66119;DHT22;52912;48.564;9.302;2023-03-05T12:27:10;4.77;76.86
66119;DHT22;52912;48.564;9.302;2023-03-05T12:29:46;4.63;76.91
66119;DHT22;52912;48.564;9.302;2023-03-05T12:35:26;4.45;77.06
66119;DHT22;52912;48.564;9.302;2023-03-05T12:40:42;4.42;77.27
66119;DHT22;52912;48.564;9.302;2023-03-05T12:43:27;4.41;77.28
66119;DHT22;52912;48.564;9.302;2023-03-05T12:46:23;4.44;77.55
66119;DHT22;52912;48.564;9.302;2023-03-05T12:48:48;4.41;77.21
66119;DHT22;52912;48.564;9.302;2023-03-05T12:51:28;4.42;77.23
66119;DHT22;52912;48.564;9.302;2023-03-05T12:53:54;4.38;77.63
66119;DHT22;52912;48.564;9.302;2023-03-05T12:56:21;4.45;77.98
66119;DHT22;52912;48.564;9.302;2023-03-05T12:58:52;4.45;77.25
66119;DHT22;52912;48.564;9.302;2023-03-05T13:01:31;4.42;77.41
66119;DHT22;52912;48.564;9.302;2023-03-05T13:04:00;4.37;77.78
66119;DHT22;52912;48.564;9.302;2023-03-05T13:06:30;4.35;78.22
66119;DHT22;52912;48.564;9.302;2023-03-05T13:08:58;4.41;78.07
66119;DHT22;52912;48.564;9.302;2023-03-05T13:11:24;4.41;77.62
66119;DHT22;52912;48.564;9.302;2023-03-05T13:13:50;4.46;78.13
66119;DHT22;52912;48.564;9.302;2023-03-05T13:16:18;4.52;78.00
66119;DHT22;52912;48.564;9.302;2023-03-05T13:18:46;4.56;77.95
66119;DHT22;52912;48.564;9.302;2023-03-05T13:21:14;4.56;77.39
66119;DHT22;52912;48.564;9.302;2023-03-05T13:23:45;4.51;77.45
66119;DHT22;52912;48.564;9.302;2023-03-05T13:26:12;4.42;77.27
66119;DHT22;52912;48.564;9.302;2023-03-05T13:28:38;4.49;77.80
66119;DHT22;52912;48.564;9.302;2023-03-05T13:31:12;4.49;78.18
66119;DHT22;52912;48.564;9.302;2023-03-05T13:33:38;4.40;77.74
66119;DHT22;52912;48.564;9.302;2023-03-05T13:36:06;4.52;77.99
66119;DHT22;52912;48.564;9.302;2023-03-05T13:38:35;4.52;77.76
66119;DHT22;52912;48.564;9.302;2023-03-05T13:41:06;4.56;78.05
66119;DHT22;52912;48.564;9.302;2023-03-05T13:43:32;4.46;77.47
66119;DHT22;52912;48.564;9.302;2023-03-05T13:45:58;4.46;77.50
66119;DHT22;52912;48.564;9.302;2023-03-05T13:48:24;4.42;77.80
66119;DHT22;52912;48.564;9.302;2023-03-05T13:50:54;4.46;78.10
66119;DHT22;52912;48.564;9.302;2023-03-05T13:53:22;4.46;78.22
66119;DHT22;52912;48.564;9.302;2023-03-05T13:55:49;4.45;77.26
66119;DHT22;52912;48.564;9.302;2023-03-05T13:58:41;4.51;77.60
66119;DHT22;52912;48.564;9.302;2023-03-05T14:01:12;4.44;78.20
66119;DHT22;52912;48.564;9.302;2023-03-05T14:03:38;4.49;77.58
66119;DHT22;52912;48.564;9.302;2023-03-05T14:06:06;4.42;78.04
66119;DHT22;52912;48.564;9.302;2023-03-05T14:08:35;4.38;78.47
66119;DHT22;52912;48.564;9.302;2023-03-05T14:11:11;4.48;78.43
66119;DHT22;52912;48.564;9.302;2023-03-05T14:13:37;4.44;78.38
66119;DHT22;52912;48.564;9.302;2023-03-05T14:16:04;4.37;78.97
66119;DHT22;52912;48.564;9.302;2023-03-05T14:18:30;4.52;78.41
66119;DHT22;52912;48.564;9.302;2023-03-05T14:21:02;4.38;78.35
66119;DHT22;52912;48.564;9.302;2023-03-05T14:23:48;4.24;78.65
66119;DHT22;52912;48.564;9.302;2023-03-05T14:26:21;4.20;79.12
66119;DHT22;52912;48.564;9.302;2023-03-05T14:28:52;4.41;79.24
66119;DHT22;52912;48.564;9.302;2023-03-05T14:31:18;4.28;79.79
66119;DHT22;52912;48.564;9.302;2023-03-05T14:33:44;4.15;80.06
66119;DHT22;52912;48.564;9.302;2023-03-05T14:36:09;4.07;80.45
66119;DHT22;52912;48.564;9.302;2023-03-05T14:38:38;4.07;80.72
66119;DHT22;52912;48.564;9.302;2023-03-05T14:41:27;4.15;80.78
66119;DHT22;52912;48.564;9.302;2023-03-05T14:43:55;4.10;80.58
66119;DHT22;52912;48.564;9.302;2023-03-05T14:46:20;4.25;80.31
66119;DHT22;52912;48.564;9.302;2023-03-05T14:48:46;4.32;79.74
66119;DHT22;52912;48.564;9.302;2023-03-05T14:51:11;4.15;79.82
66119;DHT22;52912;48.564;9.302;2023-03-05T14:53:39;4.20;79.69
66119;DHT22;52912;48.564;9.302;2023-03-05T14:56:16;4.14;79.78
66119;DHT22;52912;48.564;9.302;2023-03-05T14:58:43;4.08;79.78
66119;DHT22;52912;48.564;9.302;2023-03-05T15:01:09;4.13;79.95
66119;DHT22;52912;48.564;9.302;2023-03-05T15:03:35;4.08;79.95
66119;DHT22;52912;48.564;9.302;2023-03-05T15:06:01;4.07;80.00
66119;DHT22;52912;48.564;9.302;2023-03-05T15:08:28;4.17;79.33
66119;DHT22;52912;48.564;9.302;2023-03-05T15:10:54;4.08;79.26
66119;DHT22;52912;48.564;9.302;2023-03-05T15:13:20;4.17;78.89
66119;DHT22;52912;48.564;9.302;2023-03-05T15:15:47;4.27;78.82
66119;DHT22;52912;48.564;9.302;2023-03-05T15:18:16;4.32;78.47
66119;DHT22;52912;48.564;9.302;2023-03-05T15:20:42;4.22;79.08
66119;DHT22;52912;48.564;9.302;2023-03-05T15:23:08;4.15;79.06
66119;DHT22;52912;48.564;9.302;2023-03-05T15:25:34;4.18;79.28
66119;DHT22;52912;48.564;9.302;2023-03-05T15:28:00;4.25;78.72
66119;DHT22;52912;48.564;9.302;2023-03-05T15:30:27;4.38;78.60
66119;DHT22;52912;48.564;9.302;2023-03-05T15:32:56;4.38;78.37
66119;DHT22;52912;48.564;9.302;2023-03-05T15:35:23;4.34;78.80
66119;DHT22;52912;48.564;9.302;2023-03-05T15:37:49;4.22;79.23
66119;DHT22;52912;48.564;9.302;2023-03-05T15:40:15;4.13;78.66
66119;DHT22;52912;48.564;9.302;2023-03-05T15:42:40;4.18;78.78
66119;DHT22;52912;48.564;9.302;2023-03-05T15:45:07;4.30;79.23
66119;DHT22;52912;48.564;9.302;2023-03-05T15:47:33;4.32;78.62
66119;DHT22;52912;48.564;9.302;2023-03-05T15:50:00;4.38;78.50
66119;DHT22;52912;48.564;9.302;2023-03-05T15:52:25;4.24;78.64
66119;DHT22;52912;48.564;9.302;2023-03-05T15:54:51;4.14;79.11
66119;DHT22;52912;48.564;9.302;2023-03-05T15:57:18;4.24;78.84
66119;DHT22;52912;48.564;9.302;2023-03-05T15:59:44;4.27;78.46
66119;DHT22;52912;48.564;9.302;2023-03-05T16:02:09;4.21;79.02